Time;durP1;ratioP1;P1;durP2;ratioP2;P2;SDS_P1;SDS_P2;PMS_P1;PMS_P2;Temp;Humidity;BMP_temperature;BMP_pressure;BME280_temperature;BME280_humidity;BME280_pressure;Samples;Min_cycle;Max_cycle;Signal;HPM_P1;HPM_P2
2021/06/19 00:00:14;;;;;;;10.07;6.30;;;20.00;99.90;;;;;;2081190;28;20999;-73
2021/06/19 00:01:14;;;;;;;9.87;6.87;;;20.00;99.90;;;;;;2090135;28;20709;-72
2021/06/19 00:02:15;;;;;;;9.10;5.70;;;20.00;99.90;;;;;;2080912;28;20449;-72
2021/06/19 00:03:16;;;;;;;8.37;5.80;;;20.00;99.90;;;;;;2081170;28;20608;-72
2021/06/19 00:04:16;;;;;;;9.33;6.03;;;19.90;99.90;;;;;;2097681;28;20194;-73
2021/06/19 00:05:19;;;;;;;8.07;5.33;;;19.90;99.90;;;;;;2090110;28;20283;-72
2021/06/19 00:06:21;;;;;;;7.03;5.73;;;19.90;99.90;;;;;;2097719;28;20176;-72
2021/06/19 00:07:21;;;;;;;7.83;5.50;;;20.00;99.90;;;;;;2089360;28;20475;-72
2021/06/19 00:08:23;;;;;;;9.73;6.07;;;20.00;99.90;;;;;;2089501;28;20791;-73
2021/06/19 00:09:24;;;;;;;7.73;5.70;;;20.00;99.90;;;;;;2089249;28;20210;-73
2021/06/19 00:10:25;;;;;;;10.90;7.10;;;19.90;99.90;;;;;;2081364;28;20453;-73
2021/06/19 00:11:26;;;;;;;9.27;6.67;;;19.90;99.90;;;;;;2081546;28;20188;-72
2021/06/19 00:12:26;;;;;;;9.90;6.93;;;19.80;99.90;;;;;;2081279;28;20420;-73
2021/06/19 00:13:27;;;;;;;8.03;6.20;;;19.70;99.90;;;;;;2090272;28;20176;-73
2021/06/19 00:14:28;;;;;;;10.57;6.53;;;19.70;99.90;;;;;;2081414;28;20251;-72
2021/06/19 00:15:29;;;;;;;11.10;6.57;;;19.70;99.90;;;;;;2081310;28;20264;-73
2021/06/19 00:16:29;;;;;;;10.83;6.67;;;19.80;99.90;;;;;;2089891;28;20267;-72
2021/06/19 00:17:30;;;;;;;12.10;6.17;;;19.80;99.90;;;;;;2089463;28;20231;-73
2021/06/19 00:18:33;;;;;;;11.07;6.57;;;19.80;99.90;;;;;;2090419;28;20184;-73
2021/06/19 00:19:33;;;;;;;9.57;6.30;;;19.80;99.90;;;;;;2089648;28;20186;-73
2021/06/19 00:20:34;;;;;;;11.27;6.50;;;19.90;99.90;;;;;;2097442;28;20426;-73
2021/06/19 00:21:35;;;;;;;7.40;6.20;;;19.90;99.90;;;;;;2097296;28;20172;-72
2021/06/19 00:22:36;;;;;;;9.17;6.30;;;19.90;99.90;;;;;;2089186;28;20305;-73
2021/06/19 00:23:36;;;;;;;13.20;7.20;;;19.90;99.90;;;;;;2089406;28;20799;-72
2021/06/19 00:24:40;;;;;;;9.13;6.70;;;19.90;99.90;;;;;;2098148;28;20194;-73
2021/06/19 00:25:41;;;;;;;8.77;6.40;;;19.90;99.90;;;;;;2098189;28;20180;-72
2021/06/19 00:26:41;;;;;;;8.33;5.47;;;19.90;99.90;;;;;;2098047;28;20471;-73
2021/06/19 00:27:43;;;;;;;10.33;6.30;;;19.90;99.90;;;;;;2098300;28;20828;-73
2021/06/19 00:28:44;;;;;;;8.27;6.27;;;19.90;99.90;;;;;;2080954;28;20276;-73
2021/06/19 00:29:45;;;;;;;10.43;6.03;;;19.90;99.90;;;;;;2081052;28;20424;-73
2021/06/19 00:30:45;;;;;;;8.80;6.20;;;19.90;99.90;;;;;;2097572;28;20215;-73
2021/06/19 00:31:46;;;;;;;11.63;6.70;;;19.90;99.90;;;;;;2089472;28;20176;-72
2021/06/19 00:32:48;;;;;;;12.03;6.10;;;19.90;99.90;;;;;;2089178;28;20180;-72
2021/06/19 00:33:49;;;;;;;10.37;5.90;;;19.90;99.90;;;;;;2098110;28;20924;-73
2021/06/19 00:34:50;;;;;;;7.43;6.43;;;19.90;99.90;;;;;;2098130;28;20414;-73
2021/06/19 00:35:51;;;;;;;9.43;6.50;;;19.90;99.90;;;;;;2089312;28;20518;-72
2021/06/19 00:36:52;;;;;;;8.80;5.93;;;19.90;99.90;;;;;;2088021;28;20302;-73
2021/06/19 00:37:53;;;;;;;9.23;6.87;;;19.80;99.90;;;;;;2089048;28;20604;-73
2021/06/19 00:38:53;;;;;;;11.43;6.90;;;19.80;99.90;;;;;;2089184;28;20415;-73
2021/06/19 00:39:54;;;;;;;12.33;7.27;;;19.70;99.90;;;;;;2089526;28;20176;-73
2021/06/19 00:40:55;;;;;;;14.57;7.90;;;19.70;99.90;;;;;;2080989;28;20177;-72
2021/06/19 00:41:55;;;;;;;10.90;7.30;;;19.70;99.90;;;;;;2072737;28;20216;-73
2021/06/19 00:43:03;;;;;;;11.93;7.80;;;19.70;99.90;;;;;;2080877;28;20224;-72
2021/06/19 00:44:06;;;;;;;12.97;7.97;;;19.70;99.90;;;;;;2085153;28;20192;-72
2021/06/19 00:45:08;;;;;;;10.77;6.80;;;19.70;99.90;;;;;;2082032;28;20818;-73
2021/06/19 00:46:09;;;;;;;12.13;7.07;;;19.70;99.90;;;;;;2089268;28;20419;-72
2021/06/19 00:47:10;;;;;;;12.27;7.33;;;19.70;99.90;;;;;;2089219;28;20435;-72
2021/06/19 00:48:12;;;;;;;8.73;7.20;;;19.60;99.90;;;;;;2080544;28;20416;-72
2021/06/19 00:49:13;;;;;;;10.27;7.57;;;19.60;99.90;;;;;;2089316;28;20214;-73
2021/06/19 00:50:14;;;;;;;11.50;6.93;;;19.60;99.90;;;;;;2080598;28;20444;-73
2021/06/19 00:51:15;;;;;;;8.63;7.00;;;19.50;99.90;;;;;;2081181;28;20759;-73
2021/06/19 00:52:15;;;;;;;11.90;7.57;;;19.50;99.90;;;;;;2088987;28;20423;-73
2021/06/19 00:53:16;;;;;;;14.00;7.33;;;19.50;99.90;;;;;;2089017;28;20184;-72
2021/06/19 00:54:18;;;;;;;9.30;6.93;;;19.50;99.90;;;;;;2097623;28;20298;-73
2021/06/19 00:55:19;;;;;;;9.97;6.43;;;19.50;99.90;;;;;;2097918;28;20176;-73
2021/06/19 00:56:20;;;;;;;9.73;6.00;;;19.50;99.90;;;;;;2088979;28;20821;-73
2021/06/19 00:57:21;;;;;;;9.10;6.33;;;19.40;99.90;;;;;;2080744;28;20799;-72
2021/06/19 00:58:23;;;;;;;9.77;6.70;;;19.40;99.90;;;;;;2088834;28;20454;-73
2021/06/19 00:59:24;;;;;;;10.37;6.20;;;19.40;99.90;;;;;;2089142;28;20516;-72
2021/06/19 01:00:25;;;;;;;7.80;6.20;;;19.40;99.90;;;;;;2088775;28;20508;-73
2021/06/19 01:01:26;;;;;;;7.80;6.30;;;19.40;99.90;;;;;;2089021;28;20955;-73
2021/06/19 01:02:27;;;;;;;7.97;6.13;;;19.30;99.90;;;;;;2088585;28;20263;-72
2021/06/19 01:03:27;;;;;;;8.43;6.10;;;19.30;99.90;;;;;;2089001;28;20423;-72
2021/06/19 01:04:28;;;;;;;9.70;6.30;;;19.30;99.90;;;;;;2088974;28;20188;-73
2021/06/19 01:05:31;;;;;;;8.57;6.43;;;19.30;99.90;;;;;;2080825;28;20189;-73
2021/06/19 01:06:34;;;;;;;8.27;6.50;;;19.30;99.90;;;;;;2089147;28;20219;-72
2021/06/19 01:07:36;;;;;;;7.20;5.90;;;19.20;99.90;;;;;;2088970;28;20497;-73
2021/06/19 01:08:37;;;;;;;7.93;6.07;;;19.20;99.90;;;;;;2080670;28;20450;-73
2021/06/19 01:09:37;;;;;;;10.57;6.53;;;19.20;99.90;;;;;;2080728;28;20974;-73
2021/06/19 01:10:38;;;;;;;8.47;6.27;;;19.20;99.90;;;;;;2080686;28;20184;-72
2021/06/19 01:11:39;;;;;;;8.93;6.30;;;19.10;99.90;;;;;;2088848;28;20212;-72
2021/06/19 01:12:42;;;;;;;9.87;6.37;;;19.10;99.90;;;;;;2096870;28;20737;-72
2021/06/19 01:13:42;;;;;;;7.90;6.37;;;19.10;99.90;;;;;;2088987;28;20418;-72
2021/06/19 01:14:43;;;;;;;8.37;6.40;;;19.10;99.90;;;;;;2088672;28;20558;-72
2021/06/19 01:15:44;;;;;;;10.03;6.50;;;19.10;99.90;;;;;;2097223;28;20182;-73
2021/06/19 01:16:48;;;;;;;9.97;6.60;;;19.00;99.90;;;;;;2097466;28;20555;-73
2021/06/19 01:17:49;;;;;;;7.80;6.33;;;19.00;99.90;;;;;;2088904;28;20179;-73
2021/06/19 01:18:50;;;;;;;7.93;6.30;;;19.00;99.90;;;;;;2088917;28;20465;-72
2021/06/19 01:20:04;;;;;;;8.30;5.90;;;19.00;99.90;;;;;;2097653;28;20597;-73
2021/06/19 01:21:19;;;;;;;9.10;5.87;;;19.00;99.90;;;;;;2088695;28;20211;-73
2021/06/19 01:22:20;;;;;;;11.00;6.43;;;19.00;99.90;;;;;;2082293;28;20423;-72
2021/06/19 01:23:21;;;;;;;7.50;6.53;;;19.00;99.90;;;;;;2088624;28;20502;-73
2021/06/19 01:24:23;;;;;;;13.63;7.50;;;18.90;99.90;;;;;;2097702;28;20201;-72
2021/06/19 01:25:27;;;;;;;11.00;8.87;;;19.00;99.90;;;;;;2088633;28;20191;-74
2021/06/19 01:26:31;;;;;;;10.17;8.27;;;18.90;99.90;;;;;;2089483;28;20430;-72
2021/06/19 01:27:32;;;;;;;13.13;8.60;;;18.90;99.90;;;;;;2088605;28;21071;-72
2021/06/19 01:28:33;;;;;;;10.67;8.37;;;18.80;99.90;;;;;;2080633;28;20506;-72
2021/06/19 01:29:34;;;;;;;12.03;8.23;;;18.80;99.90;;;;;;2080567;28;20443;-73
2021/06/19 01:30:34;;;;;;;9.23;7.83;;;18.80;99.90;;;;;;2088831;28;20184;-72
2021/06/19 01:31:38;;;;;;;9.80;8.87;;;18.80;99.90;;;;;;2088793;28;20290;-73
2021/06/19 01:32:40;;;;;;;12.77;9.83;;;18.70;99.90;;;;;;2088348;28;20192;-73
2021/06/19 01:33:44;;;;;;;10.30;9.20;;;18.80;99.90;;;;;;2088410;28;20427;-73
2021/06/19 01:34:45;;;;;;;10.13;8.80;;;18.70;99.90;;;;;;2080940;28;20463;-73
2021/06/19 01:35:45;;;;;;;11.67;8.77;;;18.70;99.90;;;;;;2088568;28;20474;-73
2021/06/19 01:36:46;;;;;;;11.43;8.90;;;18.60;99.90;;;;;;2097586;28;20233;-73
2021/06/19 01:37:53;;;;;;;10.37;9.13;;;18.60;99.90;;;;;;2088562;28;20200;-73
2021/06/19 01:38:55;;;;;;;11.03;9.13;;;18.50;99.90;;;;;;2089646;28;20908;-73
2021/06/19 01:40:12;;;;;;;9.83;8.40;;;18.50;99.90;;;;;;2088647;28;20450;-73
2021/06/19 01:41:24;;;;;;;9.63;8.57;;;18.50;99.90;;;;;;2082605;28;20404;-73
2021/06/19 01:42:25;;;;;;;9.07;7.53;;;18.50;99.90;;;;;;2081637;28;20431;-71
2021/06/19 01:43:25;;;;;;;9.17;7.40;;;18.40;99.90;;;;;;2088602;28;20463;-72
2021/06/19 01:44:26;;;;;;;14.83;8.20;;;18.50;99.90;;;;;;2088425;28;20268;-72
2021/06/19 01:45:32;;;;;;;8.97;7.80;;;18.40;99.90;;;;;;2088751;28;20596;-72
2021/06/19 01:46:38;;;;;;;10.03;7.37;;;18.50;99.90;;;;;;2097377;28;20186;-72
2021/06/19 01:47:39;;;;;;;9.77;7.47;;;18.40;99.90;;;;;;2080224;28;20937;-72
2021/06/19 01:48:40;;;;;;;9.77;7.37;;;18.50;99.90;;;;;;2072053;28;20421;-72
2021/06/19 01:49:40;;;;;;;8.67;7.47;;;18.40;99.90;;;;;;2088683;28;20230;-72
2021/06/19 01:50:41;;;;;;;12.57;8.67;;;18.50;99.90;;;;;;2088588;28;20465;-72
2021/06/19 01:51:42;;;;;;;10.63;8.23;;;18.40;99.90;;;;;;2088637;28;20203;-72
2021/06/19 01:52:43;;;;;;;10.10;8.80;;;18.40;99.90;;;;;;2088411;28;20237;-72
2021/06/19 01:53:48;;;;;;;13.33;10.07;;;18.40;99.90;;;;;;2088598;28;20205;-72
2021/06/19 01:54:49;;;;;;;11.17;10.10;;;18.30;99.90;;;;;;2080767;28;20427;-71
2021/06/19 01:55:50;;;;;;;10.93;9.50;;;18.30;99.90;;;;;;2088888;28;20924;-72
2021/06/19 01:56:51;;;;;;;11.13;9.33;;;18.20;99.90;;;;;;2097214;28;20332;-72
2021/06/19 01:57:54;;;;;;;11.63;8.90;;;18.20;99.90;;;;;;2088573;28;20176;-72
2021/06/19 01:58:55;;;;;;;10.93;9.13;;;18.20;99.90;;;;;;2080731;28;20177;-72
2021/06/19 02:00:14;;;;;;;11.87;8.90;;;18.10;99.90;;;;;;2080291;28;20424;-72
2021/06/19 02:01:15;;;;;;;11.20;10.10;;;18.00;99.90;;;;;;2091290;28;20165;-72
2021/06/19 02:02:19;;;;;;;14.73;10.27;;;18.00;99.90;;;;;;2088470;28;20411;-72
2021/06/19 02:03:20;;;;;;;12.80;10.20;;;18.00;99.90;;;;;;2080850;28;20495;-72
2021/06/19 02:04:22;;;;;;;12.83;10.10;;;18.00;99.90;;;;;;2088453;28;20423;-73
2021/06/19 02:05:25;;;;;;;12.20;9.43;;;17.90;99.90;;;;;;2088489;28;20259;-72
2021/06/19 02:06:25;;;;;;;10.53;9.20;;;17.90;99.90;;;;;;2080671;28;20423;-72
2021/06/19 02:07:26;;;;;;;12.50;8.67;;;17.90;99.90;;;;;;2080301;28;20458;-72
2021/06/19 02:08:27;;;;;;;10.40;9.33;;;17.90;99.90;;;;;;2088609;28;20801;-72
2021/06/19 02:09:28;;;;;;;10.63;8.77;;;17.90;99.90;;;;;;2088577;28;20199;-72
2021/06/19 02:10:39;;;;;;;9.90;7.83;;;17.90;99.90;;;;;;2088452;28;20184;-73
2021/06/19 02:11:40;;;;;;;9.50;8.57;;;17.90;99.90;;;;;;2080453;28;20184;-72
2021/06/19 02:12:42;;;;;;;11.30;9.27;;;17.90;99.90;;;;;;2079984;28;20419;-72
2021/06/19 02:13:43;;;;;;;12.80;9.33;;;17.80;99.90;;;;;;2080540;28;20279;-72
2021/06/19 02:14:45;;;;;;;12.33;9.10;;;17.80;99.90;;;;;;2088727;28;20462;-72
2021/06/19 02:15:47;;;;;;;11.67;9.10;;;17.80;99.90;;;;;;2088796;28;20228;-73
2021/06/19 02:16:47;;;;;;;11.33;8.80;;;17.80;99.90;;;;;;2089018;28;20691;-72
2021/06/19 02:17:48;;;;;;;10.30;7.97;;;17.80;99.90;;;;;;2088624;28;20423;-72
2021/06/19 02:18:49;;;;;;;11.40;8.97;;;17.80;99.90;;;;;;2088795;28;20172;-72
2021/06/19 02:19:50;;;;;;;15.83;10.00;;;17.80;99.90;;;;;;2088376;28;20418;-72
2021/06/19 02:20:54;;;;;;;10.50;9.50;;;17.80;99.90;;;;;;2080224;28;20291;-72
2021/06/19 02:21:54;;;;;;;11.97;9.37;;;17.70;99.90;;;;;;2072439;28;20559;-72
2021/06/19 02:22:56;;;;;;;10.73;9.40;;;17.70;99.90;;;;;;2080071;28;20427;-72
2021/06/19 02:23:57;;;;;;;13.13;9.00;;;17.70;99.90;;;;;;2088664;28;20177;-72
2021/06/19 02:24:58;;;;;;;11.90;8.67;;;17.80;99.90;;;;;;2096979;28;20475;-72
2021/06/19 02:25:58;;;;;;;10.63;8.17;;;17.80;99.90;;;;;;2097348;28;20542;-72
2021/06/19 02:27:14;;;;;;;11.30;9.80;;;17.70;99.90;;;;;;2088477;28;20192;-72
2021/06/19 02:28:14;;;;;;;11.90;10.03;;;17.80;99.90;;;;;;2090576;28;20667;-72
2021/06/19 02:29:15;;;;;;;14.47;11.47;;;17.70;99.90;;;;;;2097339;28;20409;-72
2021/06/19 02:30:18;;;;;;;16.97;13.17;;;17.70;99.90;;;;;;2097475;28;20167;-72
2021/06/19 02:31:20;;;;;;;14.57;12.47;;;17.60;99.90;;;;;;2088666;28;20172;-72
2021/06/19 02:32:21;;;;;;;16.60;12.10;;;17.70;99.90;;;;;;2080229;28;20422;-71
2021/06/19 02:33:23;;;;;;;14.30;11.37;;;17.60;99.90;;;;;;2090294;28;21470;-72
2021/06/19 02:34:23;;;;;;;14.27;11.33;;;17.60;99.90;;;;;;2082139;28;20200;-71
2021/06/19 02:35:31;;;;;;;13.90;10.23;;;17.60;99.90;;;;;;2082583;28;20477;-72
2021/06/19 02:36:32;;;;;;;11.80;9.90;;;17.60;99.90;;;;;;2094141;28;20696;-72
2021/06/19 02:37:33;;;;;;;11.70;10.13;;;17.60;99.90;;;;;;2080066;28;20442;-71
2021/06/19 02:38:33;;;;;;;12.43;10.20;;;17.60;99.90;;;;;;2080295;28;20334;-71
2021/06/19 02:39:34;;;;;;;11.70;10.03;;;17.60;99.90;;;;;;2088310;28;20203;-72
2021/06/19 02:40:38;;;;;;;13.97;11.03;;;17.60;99.90;;;;;;2088361;28;20176;-72
2021/06/19 02:41:39;;;;;;;11.17;10.03;;;17.60;99.90;;;;;;2096550;28;20684;-72
2021/06/19 02:42:40;;;;;;;11.50;9.97;;;17.60;99.90;;;;;;2096375;28;20433;-72
2021/06/19 02:43:41;;;;;;;11.90;10.00;;;17.60;99.90;;;;;;2097191;28;20237;-72
2021/06/19 02:44:41;;;;;;;14.10;11.07;;;17.60;99.90;;;;;;2089702;28;20500;-72
2021/06/19 02:45:43;;;;;;;13.63;10.10;;;17.50;99.90;;;;;;2090004;28;20590;-72
2021/06/19 02:46:43;;;;;;;11.63;9.77;;;17.50;99.90;;;;;;2089937;28;20269;-71
2021/06/19 02:47:51;;;;;;;14.57;10.60;;;17.50;99.90;;;;;;2081639;28;20486;-72
2021/06/19 02:48:52;;;;;;;12.67;11.37;;;17.50;99.90;;;;;;2082774;28;20181;-72
2021/06/19 02:49:52;;;;;;;12.27;10.00;;;17.50;99.90;;;;;;2081702;28;20802;-72
2021/06/19 02:50:54;;;;;;;17.13;11.10;;;17.40;99.90;;;;;;2090079;28;20184;-72
2021/06/19 02:51:55;;;;;;;10.87;9.03;;;17.40;99.90;;;;;;2094788;28;20201;-72
2021/06/19 02:52:59;;;;;;;15.37;10.37;;;17.40;99.90;;;;;;2097981;28;20497;-72
2021/06/19 02:54:00;;;;;;;12.00;9.73;;;17.40;99.90;;;;;;2089825;28;20444;-72
2021/06/19 02:55:00;;;;;;;11.97;10.60;;;17.40;99.90;;;;;;2081740;28;20426;-72
2021/06/19 02:56:01;;;;;;;10.97;9.87;;;17.40;99.90;;;;;;2089855;28;20173;-72
2021/06/19 02:57:02;;;;;;;13.40;10.80;;;17.40;99.90;;;;;;2098045;28;20211;-72
2021/06/19 02:58:06;;;;;;;16.80;11.30;;;17.40;99.90;;;;;;2098074;28;20816;-75
2021/06/19 02:59:07;;;;;;;15.50;11.37;;;17.40;99.90;;;;;;2098333;28;20233;-72
2021/06/19 03:00:11;;;;;;;15.07;12.57;;;17.40;99.90;;;;;;2089817;28;20513;-73
2021/06/19 03:01:12;;;;;;;15.07;10.93;;;17.40;99.90;;;;;;2090471;28;20263;-74
2021/06/19 03:02:13;;;;;;;13.43;11.77;;;17.40;99.90;;;;;;2098062;28;20175;-73
2021/06/19 03:03:13;;;;;;;13.07;11.33;;;17.40;99.90;;;;;;2089790;28;20173;-74
2021/06/19 03:04:15;;;;;;;13.07;10.40;;;17.40;99.90;;;;;;2089888;28;20256;-73
2021/06/19 03:05:20;;;;;;;12.87;11.10;;;17.40;99.90;;;;;;2098122;28;20226;-73
2021/06/19 03:06:21;;;;;;;14.83;12.40;;;17.30;99.90;;;;;;2089898;28;20895;-73
2021/06/19 03:07:22;;;;;;;12.73;11.43;;;17.30;99.90;;;;;;2089850;28;20439;-73
2021/06/19 03:08:22;;;;;;;13.30;11.77;;;17.30;99.90;;;;;;2098183;28;20183;-73
2021/06/19 03:09:23;;;;;;;14.77;12.87;;;17.40;99.90;;;;;;2089847;28;20266;-73
2021/06/19 03:10:28;;;;;;;15.77;13.10;;;17.40;99.90;;;;;;2090034;28;20313;-73
2021/06/19 03:11:29;;;;;;;14.68;12.35;;;17.40;99.90;;;;;;2090031;28;20635;-73
2021/06/19 03:12:30;;;;;;;15.13;11.87;;;17.40;99.90;;;;;;2081410;28;20192;-73
2021/06/19 03:13:30;;;;;;;16.37;11.77;;;17.40;99.90;;;;;;2089738;28;20176;-72
2021/06/19 03:14:31;;;;;;;12.30;10.93;;;17.40;99.90;;;;;;2098554;28;20214;-72
2021/06/19 03:15:32;;;;;;;14.37;12.80;;;17.30;99.90;;;;;;2098566;28;20194;-72
2021/06/19 03:16:35;;;;;;;13.63;12.03;;;17.40;99.90;;;;;;2089649;28;20251;-72
2021/06/19 03:17:37;;;;;;;16.70;12.73;;;17.40;99.90;;;;;;2089969;28;20429;-73
2021/06/19 03:18:37;;;;;;;15.03;13.57;;;17.40;99.90;;;;;;2089722;28;20865;-72
2021/06/19 03:19:39;;;;;;;14.57;12.37;;;17.40;99.90;;;;;;2089545;28;20414;-73
2021/06/19 03:20:39;;;;;;;13.50;11.93;;;17.40;99.90;;;;;;2098591;28;20224;-72
2021/06/19 03:21:42;;;;;;;13.27;12.00;;;17.30;99.90;;;;;;2098556;28;20973;-72
2021/06/19 03:22:57;;;;;;;14.00;12.65;;;17.40;99.90;;;;;;2098481;28;20673;-75
2021/06/19 03:23:57;;;;;;;15.73;13.13;;;17.40;99.90;;;;;;2089770;28;20671;-73
2021/06/19 03:24:58;;;;;;;15.97;12.87;;;17.40;99.90;;;;;;2081455;28;20423;-72
2021/06/19 03:25:59;;;;;;;15.70;13.97;;;17.40;99.90;;;;;;2089619;28;20173;-72
2021/06/19 03:26:59;;;;;;;16.70;14.13;;;17.40;99.90;;;;;;2098551;28;20199;-72
2021/06/19 03:28:03;;;;;;;17.30;14.23;;;17.30;99.90;;;;;;2098400;28;20207;-72
2021/06/19 03:29:05;;;;;;;18.70;14.23;;;17.30;99.90;;;;;;2081426;28;20187;-72
2021/06/19 03:30:07;;;;;;;14.85;12.57;;;17.30;99.90;;;;;;2073428;28;20951;-73
2021/06/19 03:31:08;;;;;;;15.30;13.77;;;17.30;99.90;;;;;;2081746;28;20220;-72
2021/06/19 03:32:09;;;;;;;17.57;15.20;;;17.30;99.90;;;;;;2089534;28;20427;-72
2021/06/19 03:33:11;;;;;;;14.63;13.00;;;17.30;99.90;;;;;;2089428;28;20659;-72
2021/06/19 03:34:12;;;;;;;13.83;12.13;;;17.30;99.90;;;;;;2081421;28;20482;-72
2021/06/19 03:35:14;;;;;;;15.47;12.93;;;17.30;99.90;;;;;;2081343;28;20797;-72
2021/06/19 03:36:14;;;;;;;16.13;14.43;;;17.30;99.90;;;;;;2089589;28;20260;-72
2021/06/19 03:37:15;;;;;;;19.80;14.33;;;17.30;99.90;;;;;;2089531;28;20460;-73
2021/06/19 03:38:16;;;;;;;19.33;14.50;;;17.30;99.90;;;;;;2089618;28;20239;-73
2021/06/19 03:39:16;;;;;;;14.07;12.63;;;17.30;99.90;;;;;;2089676;28;20180;-72
2021/06/19 03:40:19;;;;;;;13.73;12.27;;;17.30;99.90;;;;;;2089465;28;20675;-72
2021/06/19 03:41:20;;;;;;;15.27;11.77;;;17.30;99.90;;;;;;2089193;28;20236;-72
2021/06/19 03:42:20;;;;;;;11.47;10.37;;;17.30;99.90;;;;;;2081222;28;20531;-72
2021/06/19 03:43:21;;;;;;;12.63;10.83;;;17.20;99.90;;;;;;2089531;28;20172;-73
2021/06/19 03:44:23;;;;;;;13.23;11.80;;;17.20;99.90;;;;;;2089451;28;20184;-72
2021/06/19 03:45:30;;;;;;;12.20;10.83;;;17.20;99.90;;;;;;2097889;28;20183;-72
2021/06/19 03:46:31;;;;;;;13.57;10.70;;;17.20;99.90;;;;;;2097553;28;20417;-72
2021/06/19 03:47:31;;;;;;;11.43;9.40;;;17.20;99.90;;;;;;2098374;28;20430;-72
2021/06/19 03:48:32;;;;;;;14.40;10.83;;;17.20;99.90;;;;;;2089383;28;20263;-73
2021/06/19 03:49:33;;;;;;;11.97;10.60;;;17.20;99.90;;;;;;2089481;28;20214;-72
2021/06/19 03:50:34;;;;;;;11.70;10.50;;;17.30;99.90;;;;;;2098251;28;20183;-72
2021/06/19 03:51:35;;;;;;;13.23;10.13;;;17.20;99.90;;;;;;2089502;28;20184;-73
2021/06/19 03:52:36;;;;;;;16.43;10.17;;;17.20;99.90;;;;;;2089211;28;20469;-73
2021/06/19 03:53:36;;;;;;;12.50;10.83;;;17.20;99.90;;;;;;2089570;28;20208;-74
2021/06/19 03:54:40;;;;;;;12.57;11.20;;;17.30;99.90;;;;;;2081113;28;20714;-73
2021/06/19 03:55:40;;;;;;;13.73;11.17;;;17.30;99.90;;;;;;2080953;28;20706;-73
2021/06/19 03:56:42;;;;;;;12.67;11.37;;;17.30;99.90;;;;;;2089239;28;20470;-73
2021/06/19 03:57:42;;;;;;;13.50;12.00;;;17.30;99.90;;;;;;2089436;28;20219;-73
2021/06/19 03:58:43;;;;;;;14.43;11.47;;;17.40;99.90;;;;;;2089430;28;20419;-73
2021/06/19 03:59:44;;;;;;;16.03;12.30;;;17.40;99.90;;;;;;2089454;28;20184;-73
2021/06/19 04:00:45;;;;;;;14.43;12.67;;;17.40;99.90;;;;;;2089383;28;20210;-73
2021/06/19 04:01:45;;;;;;;13.97;12.57;;;17.40;99.90;;;;;;2098369;28;20694;-74
2021/06/19 04:02:46;;;;;;;13.77;12.47;;;17.40;99.90;;;;;;2098034;28;20309;-73
2021/06/19 04:03:47;;;;;;;17.27;13.10;;;17.40;99.90;;;;;;2089519;28;20594;-73
2021/06/19 04:04:48;;;;;;;15.50;13.20;;;17.50;99.90;;;;;;2090112;28;20473;-73
2021/06/19 04:05:49;;;;;;;17.20;14.00;;;17.50;99.90;;;;;;2090624;28;20176;-73
2021/06/19 04:06:50;;;;;;;15.93;13.13;;;17.50;99.90;;;;;;2090443;28;20965;-73
2021/06/19 04:07:50;;;;;;;16.97;13.53;;;17.50;99.90;;;;;;2090403;28;20236;-73
2021/06/19 04:08:52;;;;;;;15.90;13.53;;;17.60;99.90;;;;;;2090414;28;20222;-73
2021/06/19 04:09:53;;;;;;;17.40;14.00;;;17.60;99.90;;;;;;2090653;28;20180;-74
2021/06/19 04:10:54;;;;;;;14.53;12.30;;;17.60;99.90;;;;;;2090557;28;20460;-73
2021/06/19 04:11:54;;;;;;;14.97;13.33;;;17.60;99.90;;;;;;2099455;28;20213;-73
2021/06/19 04:12:56;;;;;;;16.53;14.03;;;17.60;99.90;;;;;;2099056;28;20261;-73
2021/06/19 04:13:56;;;;;;;15.57;13.20;;;17.70;99.90;;;;;;2099514;28;20722;-73
2021/06/19 04:14:57;;;;;;;13.23;11.90;;;17.70;99.90;;;;;;2099467;28;20746;-73
2021/06/19 04:15:58;;;;;;;12.87;11.57;;;17.70;99.90;;;;;;2090474;28;20183;-73
2021/06/19 04:16:58;;;;;;;12.83;11.07;;;17.80;99.90;;;;;;2090421;28;20212;-73
2021/06/19 04:17:59;;;;;;;11.13;9.67;;;17.90;99.90;;;;;;2098912;28;20729;-73
2021/06/19 04:19:00;;;;;;;12.60;9.77;;;17.90;99.90;;;;;;2098969;28;20187;-73
2021/06/19 04:20:00;;;;;;;11.53;9.63;;;17.90;99.90;;;;;;2090491;28;20212;-73
2021/06/19 04:21:01;;;;;;;11.33;10.10;;;17.90;99.90;;;;;;2091018;28;20225;-73
2021/06/19 04:22:04;;;;;;;11.27;10.17;;;17.90;99.90;;;;;;2090742;28;20176;-73
2021/06/19 04:23:05;;;;;;;11.50;10.30;;;17.90;99.90;;;;;;2082531;28;20626;-72
2021/06/19 04:24:06;;;;;;;12.20;10.20;;;17.90;99.90;;;;;;2082124;28;20446;-73
2021/06/19 04:25:08;;;;;;;11.10;10.00;;;17.90;99.90;;;;;;2082357;28;20181;-73
2021/06/19 04:26:09;;;;;;;13.83;10.83;;;17.90;99.90;;;;;;2082382;28;20446;-73
2021/06/19 04:27:20;;;;;;;13.77;11.87;;;17.90;99.90;;;;;;2090490;28;20445;-73
2021/06/19 04:28:21;;;;;;;12.13;10.93;;;17.90;99.90;;;;;;2098803;28;20183;-73
2021/06/19 04:29:22;;;;;;;14.83;11.37;;;18.00;99.90;;;;;;2098809;28;20462;-73
2021/06/19 04:30:25;;;;;;;13.67;11.67;;;18.10;99.90;;;;;;2090293;28;20173;-73
2021/06/19 04:31:25;;;;;;;12.00;9.97;;;18.10;99.90;;;;;;2089510;28;20275;-72
2021/06/19 04:32:26;;;;;;;14.03;11.37;;;18.20;99.90;;;;;;2097668;28;20437;-72
2021/06/19 04:33:27;;;;;;;13.23;11.07;;;18.20;99.90;;;;;;2093478;28;20274;-73
2021/06/19 04:34:28;;;;;;;14.23;11.33;;;18.20;99.90;;;;;;2080452;28;20216;-72
2021/06/19 04:35:29;;;;;;;13.43;10.03;;;18.30;99.90;;;;;;2080815;28;20507;-73
2021/06/19 04:36:30;;;;;;;12.90;11.13;;;18.30;99.90;;;;;;2088935;28;20184;-73
2021/06/19 04:37:31;;;;;;;14.93;11.47;;;18.40;99.90;;;;;;2089121;28;20830;-72
2021/06/19 04:38:31;;;;;;;12.27;10.43;;;18.40;99.90;;;;;;2080714;28;20277;-73
2021/06/19 04:39:32;;;;;;;14.87;10.20;;;18.40;99.90;;;;;;2080895;28;20264;-72
2021/06/19 04:40:38;;;;;;;11.93;10.47;;;18.50;99.90;;;;;;2080668;28;20224;-72
2021/06/19 04:42:00;;;;;;;13.57;9.90;;;18.60;99.90;;;;;;2073316;28;20170;-73
2021/06/19 04:43:06;;;;;;;11.40;10.00;;;18.60;99.90;;;;;;2084169;28;20508;-73
2021/06/19 04:44:19;;;;;;;11.27;9.53;;;18.60;99.90;;;;;;2080825;28;20431;-73
2021/06/19 04:45:20;;;;;;;14.20;10.10;;;18.60;99.90;;;;;;2083382;28;20927;-73
2021/06/19 04:46:20;;;;;;;11.40;9.90;;;18.70;99.90;;;;;;2089585;28;20451;-73
2021/06/19 04:47:25;;;;;;;14.73;10.30;;;18.70;99.90;;;;;;2089542;28;20888;-73
2021/06/19 04:48:26;;;;;;;11.97;9.33;;;18.70;99.90;;;;;;2089469;28;20195;-73
2021/06/19 04:49:27;;;;;;;13.17;9.80;;;18.70;99.90;;;;;;2089603;28;20423;-73
2021/06/19 04:50:28;;;;;;;14.33;10.47;;;18.70;99.90;;;;;;2089458;28;20184;-72
2021/06/19 04:51:29;;;;;;;12.10;9.40;;;18.70;99.90;;;;;;2088971;28;20176;-73
2021/06/19 04:52:35;;;;;;;12.17;10.33;;;18.70;99.90;;;;;;2088668;28;20517;-73
2021/06/19 04:53:36;;;;;;;12.63;9.73;;;18.70;99.90;;;;;;2080676;28;20868;-73
2021/06/19 04:54:37;;;;;;;12.03;9.80;;;18.80;99.90;;;;;;2072471;28;20474;-73
2021/06/19 04:55:38;;;;;;;12.83;9.60;;;18.80;99.90;;;;;;2072535;28;20194;-73
2021/06/19 04:56:40;;;;;;;13.77;9.87;;;18.90;99.90;;;;;;2082298;28;20512;-73
2021/06/19 04:57:42;;;;;;;12.47;9.83;;;19.00;99.90;;;;;;2099398;28;20183;-73
2021/06/19 04:58:45;;;;;;;14.43;9.53;;;19.00;99.90;;;;;;2080608;28;20424;-73
2021/06/19 04:59:46;;;;;;;14.40;9.77;;;19.00;99.90;;;;;;2072810;28;20508;-73
2021/06/19 05:00:46;;;;;;;13.70;10.10;;;19.10;99.90;;;;;;2080771;28;20424;-73
2021/06/19 05:01:47;;;;;;;10.83;9.40;;;19.10;99.90;;;;;;2088723;28;20238;-73
2021/06/19 05:02:48;;;;;;;13.50;9.43;;;19.10;99.90;;;;;;2097536;28;20187;-73
2021/06/19 05:03:48;;;;;;;11.60;8.67;;;19.10;99.90;;;;;;2088766;28;20721;-74
2021/06/19 05:04:49;;;;;;;12.70;11.27;;;19.10;99.90;;;;;;2088964;28;20173;-73
2021/06/19 05:05:51;;;;;;;12.00;10.67;;;19.10;99.90;;;;;;2088757;28;20187;-73
2021/06/19 05:06:51;;;;;;;14.40;10.23;;;19.10;99.90;;;;;;2080592;28;20665;-73
2021/06/19 05:07:52;;;;;;;13.00;10.13;;;19.00;99.90;;;;;;2080554;28;20431;-74
2021/06/19 05:08:53;;;;;;;11.53;10.10;;;19.00;99.90;;;;;;2080513;28;20591;-72
2021/06/19 05:09:53;;;;;;;15.00;10.20;;;19.10;99.90;;;;;;2088769;28;20188;-73
2021/06/19 05:10:55;;;;;;;14.47;10.97;;;19.10;99.90;;;;;;2097718;28;20188;-73
2021/06/19 05:11:56;;;;;;;12.17;9.73;;;19.20;99.90;;;;;;2088667;28;20212;-73
2021/06/19 05:12:57;;;;;;;11.30;9.50;;;19.20;99.90;;;;;;2088751;28;20429;-73
2021/06/19 05:13:57;;;;;;;12.03;8.80;;;19.20;99.90;;;;;;2097413;28;20267;-73
2021/06/19 05:15:00;;;;;;;10.07;9.00;;;19.20;99.90;;;;;;2097628;28;20545;-74
2021/06/19 05:16:00;;;;;;;12.07;9.60;;;19.10;99.90;;;;;;2097468;28;20211;-73